Time;durP1;ratioP1;P1;durP2;ratioP2;P2;SDS_P1;SDS_P2;PMS_P1;PMS_P2;Temp;Humidity;BMP_temperature;BMP_pressure;BME280_temperature;BME280_humidity;BME280_pressure;Samples;Min_cycle;Max_cycle;Signal;HPM_P1;HPM_P2
2021/05/13 00:00:43;;;;;;;39.55;25.9;;;;;;;9.33;100;94529.1;;;;
2021/05/13 00:01:44;;;;;;;39.55;25.9;;;;;;;9.33;100;94529.1;;;;
2021/05/13 00:02:46;;;;;;;38.59999;25.3;;;;;;;9.33;100;94511.6;;;;
2021/05/13 00:03:47;;;;;;;38.59999;25.3;;;;;;;9.33;100;94511.6;;;;
2021/05/13 00:04:48;;;;;;;38.59999;25.3;;;;;;;9.33;100;94511.6;;;;
2021/05/13 00:05:49;;;;;;;38.59999;25.3;;;;;;;9.33;100;94511.6;;;;
2021/05/13 00:06:49;;;;;;;38.59999;25.3;;;;;;;9.33;100;94511.6;;;;
2021/05/13 00:07:49;;;;;;;38.59999;25.3;;;;;;;9.33;100;94511.6;;;;
2021/05/13 00:08:55;;;;;;;38.59999;25.3;;;;;;;9.33;100;94511.6;;;;
2021/05/13 00:09:56;;;;;;;38.59999;25.3;;;;;;;9.33;100;94511.6;;;;
2021/05/13 00:11:02;;;;;;;38.59999;25.3;;;;;;;9.33;100;94511.6;;;;
2021/05/13 00:12:13;;;;;;;38.59999;25.3;;;;;;;9.33;100;94511.6;;;;
2021/05/13 00:13:13;;;;;;;33.1;22.65;;;;;;;9.29;100;94506.41;;;;
2021/05/13 00:14:16;;;;;;;33.1;22.65;;;;;;;9.29;100;94506.41;;;;
2021/05/13 00:15:16;;;;;;;33.1;22.65;;;;;;;9.29;100;94506.41;;;;
2021/05/13 00:16:22;;;;;;;33.1;22.65;;;;;;;9.29;100;94506.41;;;;
2021/05/13 00:17:22;;;;;;;33.1;22.65;;;;;;;9.29;100;94506.41;;;;
2021/05/13 00:18:23;;;;;;;33.1;22.65;;;;;;;9.29;100;94506.41;;;;
2021/05/13 00:19:24;;;;;;;33.1;22.65;;;;;;;9.29;100;94506.41;;;;
2021/05/13 00:20:24;;;;;;;33.1;22.65;;;;;;;9.29;100;94506.41;;;;
2021/05/13 00:21:28;;;;;;;33.1;22.65;;;;;;;9.29;100;94506.41;;;;
2021/05/13 00:22:28;;;;;;;33.1;22.65;;;;;;;9.29;100;94506.41;;;;
2021/05/13 00:23:29;;;;;;;33.1;22.65;;;;;;;9.29;100;94506.41;;;;
2021/05/13 00:24:29;;;;;;;33.75;22.6;;;;;;;9.27;100;94500.03;;;;
2021/05/13 00:25:30;;;;;;;33.75;22.6;;;;;;;9.27;100;94500.03;;;;
2021/05/13 00:26:35;;;;;;;33.75;22.6;;;;;;;9.27;100;94500.03;;;;
2021/05/13 00:27:36;;;;;;;33.75;22.6;;;;;;;9.27;100;94500.03;;;;
2021/05/13 00:28:37;;;;;;;33.75;22.6;;;;;;;9.27;100;94500.03;;;;
2021/05/13 00:29:37;;;;;;;33.75;22.6;;;;;;;9.27;100;94500.03;;;;
2021/05/13 00:30:38;;;;;;;33.75;22.6;;;;;;;9.27;100;94500.03;;;;
2021/05/13 00:31:38;;;;;;;33.75;22.6;;;;;;;9.27;100;94500.03;;;;
2021/05/13 00:32:40;;;;;;;33.75;22.6;;;;;;;9.27;100;94500.03;;;;
2021/05/13 00:33:41;;;;;;;33.75;22.6;;;;;;;9.27;100;94500.03;;;;
2021/05/13 00:34:42;;;;;;;31.35;21.45;;;;;;;9.29;100;94488.89;;;;
2021/05/13 00:35:42;;;;;;;31.35;21.45;;;;;;;9.29;100;94488.89;;;;
2021/05/13 00:36:43;;;;;;;31.35;21.45;;;;;;;9.29;100;94488.89;;;;
2021/05/13 00:37:43;;;;;;;31.35;21.45;;;;;;;9.29;100;94488.89;;;;
2021/05/13 00:38:45;;;;;;;31.35;21.45;;;;;;;9.29;100;94488.89;;;;
2021/05/13 00:39:47;;;;;;;31.35;21.45;;;;;;;9.29;100;94488.89;;;;
2021/05/13 00:40:47;;;;;;;31.35;21.45;;;;;;;9.29;100;94488.89;;;;
2021/05/13 00:41:48;;;;;;;31.35;21.45;;;;;;;9.29;100;94488.89;;;;
2021/05/13 00:42:48;;;;;;;31.35;21.45;;;;;;;9.29;100;94488.89;;;;
2021/05/13 00:43:50;;;;;;;31.35;21.45;;;;;;;9.29;100;94488.89;;;;
2021/05/13 00:44:51;;;;;;;31.35;21.45;;;;;;;9.29;100;94488.89;;;;
2021/05/13 00:45:52;;;;;;;30.85;20.65;;;;;;;9.31;100;94486.36;;;;
2021/05/13 00:46:52;;;;;;;30.85;20.65;;;;;;;9.31;100;94486.36;;;;
2021/05/13 00:48:14;;;;;;;30.85;20.65;;;;;;;9.31;100;94486.36;;;;
2021/05/13 00:49:17;;;;;;;30.85;20.65;;;;;;;9.31;100;94486.36;;;;
2021/05/13 00:50:17;;;;;;;30.85;20.65;;;;;;;9.31;100;94486.36;;;;
2021/05/13 00:51:18;;;;;;;30.85;20.65;;;;;;;9.31;100;94486.36;;;;
2021/05/13 00:52:18;;;;;;;30.85;20.65;;;;;;;9.31;100;94486.36;;;;
2021/05/13 00:53:20;;;;;;;30.85;20.65;;;;;;;9.31;100;94486.36;;;;
2021/05/13 00:54:24;;;;;;;30.85;20.65;;;;;;;9.31;100;94486.36;;;;
2021/05/13 00:55:25;;;;;;;30.85;20.65;;;;;;;9.31;100;94486.36;;;;
2021/05/13 00:56:25;;;;;;;27;19.55;;;;;;;9.33;100;94474.41;;;;
2021/05/13 00:57:27;;;;;;;27;19.55;;;;;;;9.33;100;94474.41;;;;
2021/05/13 00:58:28;;;;;;;27;19.55;;;;;;;9.33;100;94474.41;;;;
2021/05/13 00:59:30;;;;;;;27;19.55;;;;;;;9.33;100;94474.41;;;;
2021/05/13 01:00:36;;;;;;;27;19.55;;;;;;;9.33;100;94474.41;;;;
2021/05/13 01:01:48;;;;;;;27;19.55;;;;;;;9.33;100;94474.41;;;;
2021/05/13 01:02:49;;;;;;;27;19.55;;;;;;;9.33;100;94474.41;;;;
2021/05/13 01:03:49;;;;;;;27;19.55;;;;;;;9.33;100;94474.41;;;;
2021/05/13 01:04:51;;;;;;;27;19.55;;;;;;;9.33;100;94474.41;;;;
2021/05/13 01:05:51;;;;;;;27;19.55;;;;;;;9.33;100;94474.41;;;;
2021/05/13 01:06:52;;;;;;;29.2;20.25;;;;;;;9.34;100;94476.84;;;;
2021/05/13 01:07:55;;;;;;;29.2;20.25;;;;;;;9.34;100;94476.84;;;;
2021/05/13 01:08:56;;;;;;;29.2;20.25;;;;;;;9.34;100;94476.84;;;;
2021/05/13 01:09:57;;;;;;;29.2;20.25;;;;;;;9.34;100;94476.84;;;;
2021/05/13 01:10:57;;;;;;;29.2;20.25;;;;;;;9.34;100;94476.84;;;;
2021/05/13 01:12:00;;;;;;;29.2;20.25;;;;;;;9.34;100;94476.84;;;;
2021/05/13 01:13:04;;;;;;;29.2;20.25;;;;;;;9.34;100;94476.84;;;;
2021/05/13 01:14:14;;;;;;;29.2;20.25;;;;;;;9.34;100;94476.84;;;;
2021/05/13 01:15:22;;;;;;;29.2;20.25;;;;;;;9.34;100;94476.84;;;;
2021/05/13 01:16:28;;;;;;;29.2;20.25;;;;;;;9.34;100;94476.84;;;;
2021/05/13 01:17:39;;;;;;;27.45;19.1;;;;;;;9.34;100;94463.89;;;;
2021/05/13 01:18:41;;;;;;;27.45;19.1;;;;;;;9.34;100;94463.89;;;;
2021/05/13 01:19:41;;;;;;;27.45;19.1;;;;;;;9.34;100;94463.89;;;;
2021/05/13 01:20:44;;;;;;;27.45;19.1;;;;;;;9.34;100;94463.89;;;;
2021/05/13 01:21:46;;;;;;;27.45;19.1;;;;;;;9.34;100;94463.89;;;;
2021/05/13 01:22:46;;;;;;;27.45;19.1;;;;;;;9.34;100;94463.89;;;;
2021/05/13 01:23:47;;;;;;;27.45;19.1;;;;;;;9.34;100;94463.89;;;;
2021/05/13 01:24:48;;;;;;;27.45;19.1;;;;;;;9.34;100;94463.89;;;;
2021/05/13 01:25:51;;;;;;;27.45;19.1;;;;;;;9.34;100;94463.89;;;;
2021/05/13 01:26:54;;;;;;;27.45;19.1;;;;;;;9.34;100;94463.89;;;;
2021/05/13 01:27:55;;;;;;;24.95;19;;;;;;;9.33;100;94462.28;;;;
2021/05/13 01:28:58;;;;;;;24.95;19;;;;;;;9.33;100;94462.28;;;;
2021/05/13 01:30:00;;;;;;;24.95;19;;;;;;;9.33;100;94462.28;;;;
2021/05/13 01:31:00;;;;;;;24.95;19;;;;;;;9.33;100;94462.28;;;;
2021/05/13 01:32:01;;;;;;;24.95;19;;;;;;;9.33;100;94462.28;;;;
2021/05/13 01:33:02;;;;;;;24.95;19;;;;;;;9.33;100;94462.28;;;;
2021/05/13 01:34:03;;;;;;;24.95;19;;;;;;;9.33;100;94462.28;;;;
2021/05/13 01:35:05;;;;;;;24.95;19;;;;;;;9.33;100;94462.28;;;;
2021/05/13 01:36:06;;;;;;;24.95;19;;;;;;;9.33;100;94462.28;;;;
2021/05/13 01:37:07;;;;;;;24.95;19;;;;;;;9.33;100;94462.28;;;;
2021/05/13 01:38:08;;;;;;;24.95;19;;;;;;;9.33;100;94462.28;;;;
2021/05/13 01:39:11;;;;;;;25.4;18.3;;;;;;;9.32;100;94452.55;;;;
2021/05/13 01:40:13;;;;;;;25.4;18.3;;;;;;;9.32;100;94452.55;;;;
2021/05/13 01:41:15;;;;;;;25.4;18.3;;;;;;;9.32;100;94452.55;;;;
2021/05/13 01:42:15;;;;;;;25.4;18.3;;;;;;;9.32;100;94452.55;;;;
2021/05/13 01:43:16;;;;;;;25.4;18.3;;;;;;;9.32;100;94452.55;;;;
2021/05/13 01:44:16;;;;;;;25.4;18.3;;;;;;;9.32;100;94452.55;;;;
2021/05/13 01:45:17;;;;;;;25.4;18.3;;;;;;;9.32;100;94452.55;;;;
2021/05/13 01:46:18;;;;;;;25.4;18.3;;;;;;;9.32;100;94452.55;;;;
2021/05/13 01:47:18;;;;;;;25.4;18.3;;;;;;;9.32;100;94452.55;;;;
2021/05/13 01:48:19;;;;;;;25.4;18.3;;;;;;;9.32;100;94452.55;;;;
2021/05/13 01:49:20;;;;;;;26.2;18.95;;;;;;;9.29;100;94444.97;;;;
2021/05/13 01:50:22;;;;;;;26.2;18.95;;;;;;;9.29;100;94444.97;;;;
2021/05/13 01:51:23;;;;;;;26.2;18.95;;;;;;;9.29;100;94444.97;;;;
2021/05/13 01:52:24;;;;;;;26.2;18.95;;;;;;;9.29;100;94444.97;;;;
2021/05/13 01:53:24;;;;;;;26.2;18.95;;;;;;;9.29;100;94444.97;;;;
2021/05/13 01:54:26;;;;;;;26.2;18.95;;;;;;;9.29;100;94444.97;;;;
2021/05/13 01:55:27;;;;;;;26.2;18.95;;;;;;;9.29;100;94444.97;;;;
2021/05/13 01:56:28;;;;;;;26.2;18.95;;;;;;;9.29;100;94444.97;;;;
2021/05/13 01:57:28;;;;;;;26.2;18.95;;;;;;;9.29;100;94444.97;;;;
2021/05/13 01:58:28;;;;;;;26.2;18.95;;;;;;;9.29;100;94444.97;;;;
2021/05/13 01:59:29;;;;;;;26.2;18.95;;;;;;;9.29;100;94444.97;;;;
2021/05/13 02:00:30;;;;;;;27.75;18.8;;;;;;;9.25;100;94438.03;;;;
2021/05/13 02:01:32;;;;;;;27.75;18.8;;;;;;;9.25;100;94438.03;;;;
2021/05/13 02:02:33;;;;;;;27.75;18.8;;;;;;;9.25;100;94438.03;;;;
2021/05/13 02:03:35;;;;;;;27.75;18.8;;;;;;;9.25;100;94438.03;;;;
2021/05/13 02:04:35;;;;;;;27.75;18.8;;;;;;;9.25;100;94438.03;;;;
2021/05/13 02:05:36;;;;;;;27.75;18.8;;;;;;;9.25;100;94438.03;;;;
2021/05/13 02:06:37;;;;;;;27.75;18.8;;;;;;;9.25;100;94438.03;;;;
2021/05/13 02:07:37;;;;;;;27.75;18.8;;;;;;;9.25;100;94438.03;;;;
2021/05/13 02:08:38;;;;;;;27.75;18.8;;;;;;;9.25;100;94438.03;;;;
2021/05/13 02:09:39;;;;;;;27.75;18.8;;;;;;;9.25;100;94438.03;;;;
2021/05/13 02:10:39;;;;;;;25.7;19.35;;;;;;;9.19;100;94432.17;;;;
2021/05/13 02:11:40;;;;;;;25.7;19.35;;;;;;;9.19;100;94432.17;;;;
2021/05/13 02:12:40;;;;;;;25.7;19.35;;;;;;;9.19;100;94432.17;;;;
2021/05/13 02:13:42;;;;;;;25.7;19.35;;;;;;;9.19;100;94432.17;;;;
2021/05/13 02:14:42;;;;;;;25.7;19.35;;;;;;;9.19;100;94432.17;;;;
2021/05/13 02:15:43;;;;;;;25.7;19.35;;;;;;;9.19;100;94432.17;;;;
2021/05/13 02:16:43;;;;;;;25.7;19.35;;;;;;;9.19;100;94432.17;;;;
2021/05/13 02:17:44;;;;;;;25.7;19.35;;;;;;;9.19;100;94432.17;;;;
2021/05/13 02:18:45;;;;;;;25.7;19.35;;;;;;;9.19;100;94432.17;;;;
2021/05/13 02:19:45;;;;;;;25.7;19.35;;;;;;;9.19;100;94432.17;;;;
2021/05/13 02:20:46;;;;;;;25.7;19.35;;;;;;;9.19;100;94432.17;;;;
2021/05/13 02:21:47;;;;;;;27.05;18.85;;;;;;;9.14;100;94429.55;;;;
2021/05/13 02:22:47;;;;;;;27.05;18.85;;;;;;;9.14;100;94429.55;;;;
2021/05/13 02:23:49;;;;;;;27.05;18.85;;;;;;;9.14;100;94429.55;;;;
2021/05/13 02:24:49;;;;;;;27.05;18.85;;;;;;;9.14;100;94429.55;;;;
2021/05/13 02:25:50;;;;;;;27.05;18.85;;;;;;;9.14;100;94429.55;;;;
2021/05/13 02:26:51;;;;;;;27.05;18.85;;;;;;;9.14;100;94429.55;;;;
2021/05/13 02:27:51;;;;;;;27.05;18.85;;;;;;;9.14;100;94429.55;;;;
2021/05/13 02:28:52;;;;;;;27.05;18.85;;;;;;;9.14;100;94429.55;;;;
2021/05/13 02:29:52;;;;;;;27.05;18.85;;;;;;;9.14;100;94429.55;;;;
2021/05/13 02:30:53;;;;;;;27.05;18.85;;;;;;;9.14;100;94429.55;;;;
2021/05/13 02:31:54;;;;;;;30.25;19.75;;;;;;;9.08;100;94425.03;;;;
2021/05/13 02:32:54;;;;;;;30.25;19.75;;;;;;;9.08;100;94425.03;;;;
2021/05/13 02:33:55;;;;;;;30.25;19.75;;;;;;;9.08;100;94425.03;;;;
2021/05/13 02:34:55;;;;;;;30.25;19.75;;;;;;;9.08;100;94425.03;;;;
2021/05/13 02:35:56;;;;;;;30.25;19.75;;;;;;;9.08;100;94425.03;;;;
2021/05/13 02:36:56;;;;;;;30.25;19.75;;;;;;;9.08;100;94425.03;;;;
2021/05/13 02:37:58;;;;;;;30.25;19.75;;;;;;;9.08;100;94425.03;;;;
2021/05/13 02:38:58;;;;;;;30.25;19.75;;;;;;;9.08;100;94425.03;;;;
2021/05/13 02:39:59;;;;;;;30.25;19.75;;;;;;;9.08;100;94425.03;;;;
2021/05/13 02:41:00;;;;;;;30.25;19.75;;;;;;;9.08;100;94425.03;;;;
2021/05/13 02:42:00;;;;;;;30.25;19.75;;;;;;;9.08;100;94425.03;;;;
2021/05/13 02:43:03;;;;;;;27.05;19.15;;;;;;;9.04;100;94412.71;;;;
2021/05/13 02:44:03;;;;;;;27.05;19.15;;;;;;;9.04;100;94412.71;;;;
2021/05/13 02:45:04;;;;;;;27.05;19.15;;;;;;;9.04;100;94412.71;;;;
2021/05/13 02:46:07;;;;;;;27.05;19.15;;;;;;;9.04;100;94412.71;;;;
2021/05/13 02:47:07;;;;;;;27.05;19.15;;;;;;;9.04;100;94412.71;;;;
2021/05/13 02:48:09;;;;;;;27.05;19.15;;;;;;;9.04;100;94412.71;;;;
2021/05/13 02:49:09;;;;;;;27.05;19.15;;;;;;;9.04;100;94412.71;;;;
2021/05/13 02:50:10;;;;;;;27.05;19.15;;;;;;;9.04;100;94412.71;;;;
2021/05/13 02:51:12;;;;;;;27.05;19.15;;;;;;;9.04;100;94412.71;;;;
2021/05/13 02:52:13;;;;;;;27.05;19.15;;;;;;;9.04;100;94412.71;;;;
2021/05/13 02:53:14;;;;;;;29.1;19.5;;;;;;;8.95;100;94411.1;;;;
2021/05/13 02:54:14;;;;;;;29.1;19.5;;;;;;;8.95;100;94411.1;;;;
2021/05/13 02:55:15;;;;;;;29.1;19.5;;;;;;;8.95;100;94411.1;;;;
2021/05/13 02:56:16;;;;;;;29.1;19.5;;;;;;;8.95;100;94411.1;;;;
2021/05/13 02:57:16;;;;;;;29.1;19.5;;;;;;;8.95;100;94411.1;;;;
2021/05/13 02:58:17;;;;;;;29.1;19.5;;;;;;;8.95;100;94411.1;;;;
2021/05/13 02:59:18;;;;;;;29.1;19.5;;;;;;;8.95;100;94411.1;;;;
2021/05/13 03:00:25;;;;;;;29.1;19.5;;;;;;;8.95;100;94411.1;;;;
2021/05/13 03:01:26;;;;;;;29.1;19.5;;;;;;;8.95;100;94411.1;;;;
2021/05/13 03:02:27;;;;;;;29.1;19.5;;;;;;;8.95;100;94411.1;;;;
2021/05/13 03:03:27;;;;;;;29.1;19.5;;;;;;;8.95;100;94411.1;;;;
2021/05/13 03:04:28;;;;;;;26.9;19.7;;;;;;;8.83;100;94404.86;;;;
2021/05/13 03:05:28;;;;;;;26.9;19.7;;;;;;;8.83;100;94404.86;;;;
2021/05/13 03:06:30;;;;;;;26.9;19.7;;;;;;;8.83;100;94404.86;;;;
2021/05/13 03:07:33;;;;;;;26.9;19.7;;;;;;;8.83;100;94404.86;;;;
2021/05/13 03:08:35;;;;;;;26.9;19.7;;;;;;;8.83;100;94404.86;;;;
2021/05/13 03:09:38;;;;;;;26.9;19.7;;;;;;;8.83;100;94404.86;;;;
2021/05/13 03:10:43;;;;;;;26.9;19.7;;;;;;;8.83;100;94404.86;;;;
2021/05/13 03:11:44;;;;;;;26.9;19.7;;;;;;;8.83;100;94404.86;;;;
2021/05/13 03:12:46;;;;;;;26.9;19.7;;;;;;;8.83;100;94404.86;;;;
2021/05/13 03:13:49;;;;;;;26.9;19.7;;;;;;;8.83;100;94404.86;;;;
2021/05/13 03:14:51;;;;;;;28.8;19.6;;;;;;;8.77;100;94403.28;;;;
2021/05/13 03:15:52;;;;;;;28.8;19.6;;;;;;;8.77;100;94403.28;;;;
2021/05/13 03:16:54;;;;;;;28.8;19.6;;;;;;;8.77;100;94403.28;;;;
2021/05/13 03:17:55;;;;;;;28.8;19.6;;;;;;;8.77;100;94403.28;;;;
2021/05/13 03:18:57;;;;;;;28.8;19.6;;;;;;;8.77;100;94403.28;;;;
2021/05/13 03:19:59;;;;;;;28.8;19.6;;;;;;;8.77;100;94403.28;;;;
2021/05/13 03:21:04;;;;;;;28.8;19.6;;;;;;;8.77;100;94403.28;;;;
2021/05/13 03:22:08;;;;;;;28.8;19.6;;;;;;;8.77;100;94403.28;;;;
2021/05/13 03:23:11;;;;;;;28.8;19.6;;;;;;;8.77;100;94403.28;;;;
2021/05/13 03:24:15;;;;;;;28.8;19.6;;;;;;;8.77;100;94403.28;;;;
2021/05/13 03:25:17;;;;;;;29.25;19.4;;;;;;;8.74;100;94402.29;;;;
2021/05/13 03:26:25;;;;;;;29.25;19.4;;;;;;;8.74;100;94402.29;;;;
2021/05/13 03:27:39;;;;;;;29.25;19.4;;;;;;;8.74;100;94402.29;;;;
2021/05/13 03:28:39;;;;;;;29.25;19.4;;;;;;;8.74;100;94402.29;;;;
2021/05/13 03:29:39;;;;;;;29.25;19.4;;;;;;;8.74;100;94402.29;;;;
2021/05/13 03:30:40;;;;;;;29.25;19.4;;;;;;;8.74;100;94402.29;;;;
2021/05/13 03:31:43;;;;;;;29.25;19.4;;;;;;;8.74;100;94402.29;;;;
2021/05/13 03:32:44;;;;;;;29.25;19.4;;;;;;;8.74;100;94402.29;;;;
2021/05/13 03:33:45;;;;;;;29.25;19.4;;;;;;;8.74;100;94402.29;;;;
2021/05/13 03:34:46;;;;;;;29.25;19.4;;;;;;;8.74;100;94402.29;;;;
2021/05/13 03:35:46;;;;;;;29.25;19.4;;;;;;;8.74;100;94402.29;;;;
2021/05/13 03:36:47;;;;;;;25.15;18;;;;;;;8.7;100;94399.01;;;;
2021/05/13 03:37:47;;;;;;;25.15;18;;;;;;;8.7;100;94399.01;;;;
2021/05/13 03:38:48;;;;;;;25.15;18;;;;;;;8.7;100;94399.01;;;;
2021/05/13 03:39:49;;;;;;;25.15;18;;;;;;;8.7;100;94399.01;;;;
2021/05/13 03:40:49;;;;;;;25.15;18;;;;;;;8.7;100;94399.01;;;;
2021/05/13 03:41:50;;;;;;;25.15;18;;;;;;;8.7;100;94399.01;;;;
2021/05/13 03:42:50;;;;;;;25.15;18;;;;;;;8.7;100;94399.01;;;;
2021/05/13 03:43:51;;;;;;;25.15;18;;;;;;;8.7;100;94399.01;;;;
2021/05/13 03:44:51;;;;;;;25.15;18;;;;;;;8.7;100;94399.01;;;;
2021/05/13 03:45:52;;;;;;;25.15;18;;;;;;;8.7;100;94399.01;;;;
2021/05/13 03:46:52;;;;;;;25.2;18.2;;;;;;;8.75;100;94393.7;;;;
2021/05/13 03:47:53;;;;;;;25.2;18.2;;;;;;;8.75;100;94393.7;;;;
2021/05/13 03:48:54;;;;;;;25.2;18.2;;;;;;;8.75;100;94393.7;;;;
2021/05/13 03:49:54;;;;;;;25.2;18.2;;;;;;;8.75;100;94393.7;;;;
2021/05/13 03:50:55;;;;;;;25.2;18.2;;;;;;;8.75;100;94393.7;;;;
2021/05/13 03:51:55;;;;;;;25.2;18.2;;;;;;;8.75;100;94393.7;;;;
2021/05/13 03:52:55;;;;;;;25.2;18.2;;;;;;;8.75;100;94393.7;;;;
2021/05/13 03:53:57;;;;;;;25.2;18.2;;;;;;;8.75;100;94393.7;;;;
2021/05/13 03:54:58;;;;;;;25.2;18.2;;;;;;;8.75;100;94393.7;;;;
2021/05/13 03:55:58;;;;;;;25.2;18.2;;;;;;;8.75;100;94393.7;;;;
2021/05/13 03:56:59;;;;;;;25.2;18.2;;;;;;;8.75;100;94393.7;;;;
2021/05/13 03:58:02;;;;;;;24.8;17.9;;;;;;;8.76;100;94386.86;;;;
2021/05/13 03:59:09;;;;;;;24.8;17.9;;;;;;;8.76;100;94386.86;;;;
2021/05/13 04:00:12;;;;;;;24.8;17.9;;;;;;;8.76;100;94386.86;;;;
2021/05/13 04:01:17;;;;;;;24.8;17.9;;;;;;;8.76;100;94386.86;;;;
2021/05/13 04:02:29;;;;;;;24.8;17.9;;;;;;;8.76;100;94386.86;;;;
2021/05/13 04:03:30;;;;;;;24.8;17.9;;;;;;;8.76;100;94386.86;;;;
2021/05/13 04:04:30;;;;;;;24.8;17.9;;;;;;;8.76;100;94386.86;;;;
2021/05/13 04:05:31;;;;;;;24.8;17.9;;;;;;;8.76;100;94386.86;;;;
2021/05/13 04:06:31;;;;;;;24.8;17.9;;;;;;;8.76;100;94386.86;;;;
2021/05/13 04:07:32;;;;;;;24.8;17.9;;;;;;;8.76;100;94386.86;;;;
2021/05/13 04:08:34;;;;;;;25.55;17.6;;;;;;;8.76;100;94392.24;;;;
2021/05/13 04:09:35;;;;;;;25.55;17.6;;;;;;;8.76;100;94392.24;;;;
2021/05/13 04:10:35;;;;;;;25.55;17.6;;;;;;;8.76;100;94392.24;;;;
2021/05/13 04:11:36;;;;;;;25.55;17.6;;;;;;;8.76;100;94392.24;;;;
2021/05/13 04:12:38;;;;;;;25.55;17.6;;;;;;;8.76;100;94392.24;;;;
2021/05/13 04:13:40;;;;;;;25.55;17.6;;;;;;;8.76;100;94392.24;;;;
2021/05/13 04:14:41;;;;;;;25.55;17.6;;;;;;;8.76;100;94392.24;;;;
2021/05/13 04:15:45;;;;;;;25.55;17.6;;;;;;;8.76;100;94392.24;;;;
2021/05/13 04:16:51;;;;;;;25.55;17.6;;;;;;;8.76;100;94392.24;;;;
2021/05/13 04:17:52;;;;;;;25.55;17.6;;;;;;;8.76;100;94392.24;;;;
2021/05/13 04:18:53;;;;;;;23.95;17.05;;;;;;;8.8;100;94396.46;;;;
2021/05/13 04:19:53;;;;;;;23.95;17.05;;;;;;;8.8;100;94396.46;;;;
2021/05/13 04:20:54;;;;;;;23.95;17.05;;;;;;;8.8;100;94396.46;;;;
2021/05/13 04:21:54;;;;;;;23.95;17.05;;;;;;;8.8;100;94396.46;;;;
2021/05/13 04:22:55;;;;;;;23.95;17.05;;;;;;;8.8;100;94396.46;;;;
2021/05/13 04:23:55;;;;;;;23.95;17.05;;;;;;;8.8;100;94396.46;;;;
2021/05/13 04:24:56;;;;;;;23.95;17.05;;;;;;;8.8;100;94396.46;;;;
2021/05/13 04:25:57;;;;;;;23.95;17.05;;;;;;;8.8;100;94396.46;;;;
2021/05/13 04:26:57;;;;;;;23.95;17.05;;;;;;;8.8;100;94396.46;;;;
2021/05/13 04:27:58;;;;;;;23.95;17.05;;;;;;;8.8;100;94396.46;;;;
2021/05/13 04:28:58;;;;;;;23.95;17.05;;;;;;;8.8;100;94396.46;;;;
2021/05/13 04:29:59;;;;;;;23.9;17.05;;;;;;;8.87;100;94393.06;;;;
2021/05/13 04:30:59;;;;;;;23.9;17.05;;;;;;;8.87;100;94393.06;;;;
2021/05/13 04:32:00;;;;;;;23.9;17.05;;;;;;;8.87;100;94393.06;;;;
2021/05/13 04:33:01;;;;;;;23.9;17.05;;;;;;;8.87;100;94393.06;;;;
2021/05/13 04:34:02;;;;;;;23.9;17.05;;;;;;;8.87;100;94393.06;;;;
2021/05/13 04:35:03;;;;;;;23.9;17.05;;;;;;;8.87;100;94393.06;;;;
2021/05/13 04:36:05;;;;;;;23.9;17.05;;;;;;;8.87;100;94393.06;;;;
2021/05/13 04:37:06;;;;;;;23.9;17.05;;;;;;;8.87;100;94393.06;;;;
2021/05/13 04:38:08;;;;;;;23.9;17.05;;;;;;;8.87;100;94393.06;;;;
2021/05/13 04:39:09;;;;;;;23.9;17.05;;;;;;;8.87;100;94393.06;;;;
2021/05/13 04:40:09;;;;;;;21.2;16.45;;;;;;;8.95;100;94400.73;;;;
2021/05/13 04:41:12;;;;;;;21.2;16.45;;;;;;;8.95;100;94400.73;;;;
2021/05/13 04:42:13;;;;;;;21.2;16.45;;;;;;;8.95;100;94400.73;;;;
2021/05/13 04:43:13;;;;;;;21.2;16.45;;;;;;;8.95;100;94400.73;;;;
2021/05/13 04:44:14;;;;;;;21.2;16.45;;;;;;;8.95;100;94400.73;;;;
2021/05/13 04:45:14;;;;;;;21.2;16.45;;;;;;;8.95;100;94400.73;;;;
2021/05/13 04:46:16;;;;;;;21.2;16.45;;;;;;;8.95;100;94400.73;;;;
2021/05/13 04:47:25;;;;;;;21.2;16.45;;;;;;;8.95;100;94400.73;;;;
2021/05/13 04:48:26;;;;;;;21.2;16.45;;;;;;;8.95;100;94400.73;;;;
2021/05/13 04:49:27;;;;;;;21.2;16.45;;;;;;;8.95;100;94400.73;;;;
2021/05/13 04:50:28;;;;;;;21.2;16.45;;;;;;;8.95;100;94400.73;;;;
2021/05/13 04:51:28;;;;;;;22.75;16.4;;;;;;;9.02;100;94402.72;;;;
2021/05/13 04:52:31;;;;;;;22.75;16.4;;;;;;;9.02;100;94402.72;;;;
2021/05/13 04:53:31;;;;;;;22.75;16.4;;;;;;;9.02;100;94402.72;;;;
2021/05/13 04:54:32;;;;;;;22.75;16.4;;;;;;;9.02;100;94402.72;;;;
2021/05/13 04:55:32;;;;;;;22.75;16.4;;;;;;;9.02;100;94402.72;;;;
2021/05/13 04:56:34;;;;;;;22.75;16.4;;;;;;;9.02;100;94402.72;;;;
2021/05/13 04:57:35;;;;;;;22.75;16.4;;;;;;;9.02;100;94402.72;;;;
2021/05/13 04:58:37;;;;;;;22.75;16.4;;;;;;;9.02;100;94402.72;;;;
2021/05/13 04:59:37;;;;;;;22.75;16.4;;;;;;;9.02;100;94402.72;;;;
2021/05/13 05:00:38;;;;;;;22.75;16.4;;;;;;;9.02;100;94402.72;;;;
2021/05/13 05:01:38;;;;;;;21.25;16.15;;;;;;;9.09;100;94404.71;;;;
2021/05/13 05:02:39;;;;;;;21.25;16.15;;;;;;;9.09;100;94404.71;;;;
2021/05/13 05:03:39;;;;;;;21.25;16.15;;;;;;;9.09;100;94404.71;;;;
2021/05/13 05:04:40;;;;;;;21.25;16.15;;;;;;;9.09;100;94404.71;;;;
2021/05/13 05:05:40;;;;;;;21.25;16.15;;;;;;;9.09;100;94404.71;;;;
2021/05/13 05:06:41;;;;;;;21.25;16.15;;;;;;;9.09;100;94404.71;;;;
2021/05/13 05:07:42;;;;;;;21.25;16.15;;;;;;;9.09;100;94404.71;;;;
2021/05/13 05:08:42;;;;;;;21.25;16.15;;;;;;;9.09;100;94404.71;;;;
2021/05/13 05:09:43;;;;;;;21.25;16.15;;;;;;;9.09;100;94404.71;;;;
2021/05/13 05:10:44;;;;;;;21.25;16.15;;;;;;;9.09;100;94404.71;;;;
2021/05/13 05:11:44;;;;;;;21.25;16.15;;;;;;;9.09;100;94404.71;;;;
2021/05/13 05:12:45;;;;;;;23.15;16.2;;;;;;;9.21;100;94401.76;;;;
2021/05/13 05:13:46;;;;;;;23.15;16.2;;;;;;;9.21;100;94401.76;;;;
2021/05/13 05:14:47;;;;;;;23.15;16.2;;;;;;;9.21;100;94401.76;;;;
2021/05/13 05:15:48;;;;;;;23.15;16.2;;;;;;;9.21;100;94401.76;;;;
2021/05/13 05:16:49;;;;;;;23.15;16.2;;;;;;;9.21;100;94401.76;;;;
2021/05/13 05:17:50;;;;;;;23.15;16.2;;;;;;;9.21;100;94401.76;;;;
2021/05/13 05:18:51;;;;;;;23.15;16.2;;;;;;;9.21;100;94401.76;;;;
2021/05/13 05:19:51;;;;;;;23.15;16.2;;;;;;;9.21;100;94401.76;;;;
2021/05/13 05:20:52;;;;;;;23.15;16.2;;;;;;;9.21;100;94401.76;;;;
2021/05/13 05:21:53;;;;;;;23.15;16.2;;;;;;;9.21;100;94401.76;;;;
2021/05/13 05:22:54;;;;;;;19.55;14.9;;;;;;;9.38;100;94400.79;;;;
2021/05/13 05:23:54;;;;;;;19.55;14.9;;;;;;;9.38;100;94400.79;;;;
2021/05/13 05:24:55;;;;;;;19.55;14.9;;;;;;;9.38;100;94400.79;;;;
2021/05/13 05:25:56;;;;;;;19.55;14.9;;;;;;;9.38;100;94400.79;;;;
2021/05/13 05:26:56;;;;;;;19.55;14.9;;;;;;;9.38;100;94400.79;;;;
2021/05/13 05:27:57;;;;;;;19.55;14.9;;;;;;;9.38;100;94400.79;;;;
2021/05/13 05:28:58;;;;;;;19.55;14.9;;;;;;;9.38;100;94400.79;;;;
2021/05/13 05:29:58;;;;;;;19.55;14.9;;;;;;;9.38;100;94400.79;;;;
2021/05/13 05:30:59;;;;;;;19.55;14.9;;;;;;;9.38;100;94400.79;;;;
2021/05/13 05:32:00;;;;;;;19.55;14.9;;;;;;;9.38;100;94400.79;;;;
2021/05/13 05:33:00;;;;;;;19.55;14.9;;;;;;;9.38;100;94400.79;;;;
2021/05/13 05:34:02;;;;;;;18.1;14.5;;;;;;;9.58;100;94398.47;;;;
2021/05/13 05:35:04;;;;;;;18.1;14.5;;;;;;;9.58;100;94398.47;;;;
2021/05/13 05:36:06;;;;;;;18.1;14.5;;;;;;;9.58;100;94398.47;;;;
2021/05/13 05:37:07;;;;;;;18.1;14.5;;;;;;;9.58;100;94398.47;;;;
2021/05/13 05:38:07;;;;;;;18.1;14.5;;;;;;;9.58;100;94398.47;;;;
2021/05/13 05:39:09;;;;;;;18.1;14.5;;;;;;;9.58;100;94398.47;;;;
2021/05/13 05:40:11;;;;;;;18.1;14.5;;;;;;;9.58;100;94398.47;;;;
2021/05/13 05:41:12;;;;;;;18.1;14.5;;;;;;;9.58;100;94398.47;;;;
2021/05/13 05:42:13;;;;;;;18.1;14.5;;;;;;;9.58;100;94398.47;;;;
2021/05/13 05:43:13;;;;;;;18.1;14.5;;;;;;;9.58;100;94398.47;;;;
2021/05/13 05:44:14;;;;;;;16.5;13.6;;;;;;;9.8;100;94398.35;;;;
2021/05/13 05:45:15;;;;;;;16.5;13.6;;;;;;;9.8;100;94398.35;;;;
2021/05/13 05:46:17;;;;;;;16.5;13.6;;;;;;;9.8;100;94398.35;;;;
2021/05/13 05:47:18;;;;;;;16.5;13.6;;;;;;;9.8;100;94398.35;;;;
2021/05/13 05:48:19;;;;;;;16.5;13.6;;;;;;;9.8;100;94398.35;;;;
2021/05/13 05:49:19;;;;;;;16.5;13.6;;;;;;;9.8;100;94398.35;;;;
2021/05/13 05:50:20;;;;;;;16.5;13.6;;;;;;;9.8;100;94398.35;;;;
2021/05/13 05:51:20;;;;;;;16.5;13.6;;;;;;;9.8;100;94398.35;;;;
2021/05/13 05:52:21;;;;;;;16.5;13.6;;;;;;;9.8;100;94398.35;;;;
2021/05/13 05:53:22;;;;;;;16.5;13.6;;;;;;;9.8;100;94398.35;;;;
2021/05/13 05:54:22;;;;;;;16.5;13.6;;;;;;;9.8;100;94398.35;;;;
2021/05/13 05:55:23;;;;;;;18.9;13.9;;;;;;;9.99;100;94382.92;;;;
2021/05/13 05:56:24;;;;;;;18.9;13.9;;;;;;;9.99;100;94382.92;;;;
2021/05/13 05:57:24;;;;;;;18.9;13.9;;;;;;;9.99;100;94382.92;;;;
2021/05/13 05:58:26;;;;;;;18.9;13.9;;;;;;;9.99;100;94382.92;;;;
2021/05/13 05:59:27;;;;;;;18.9;13.9;;;;;;;9.99;100;94382.92;;;;
2021/05/13 06:00:27;;;;;;;18.9;13.9;;;;;;;9.99;100;94382.92;;;;
2021/05/13 06:01:28;;;;;;;18.9;13.9;;;;;;;9.99;100;94382.92;;;;
2021/05/13 06:02:28;;;;;;;18.9;13.9;;;;;;;9.99;100;94382.92;;;;
2021/05/13 06:03:29;;;;;;;18.9;13.9;;;;;;;9.99;100;94382.92;;;;
2021/05/13 06:04:29;;;;;;;18.9;13.9;;;;;;;9.99;100;94382.92;;;;
2021/05/13 06:05:31;;;;;;;19.65;14.4;;;;;;;10.2;100;94383.15;;;;
2021/05/13 06:06:31;;;;;;;19.65;14.4;;;;;;;10.2;100;94383.15;;;;
2021/05/13 06:07:32;;;;;;;19.65;14.4;;;;;;;10.2;100;94383.15;;;;
2021/05/13 06:08:32;;;;;;;19.65;14.4;;;;;;;10.2;100;94383.15;;;;
2021/05/13 06:09:33;;;;;;;19.65;14.4;;;;;;;10.2;100;94383.15;;;;
2021/05/13 06:10:33;;;;;;;19.65;14.4;;;;;;;10.2;100;94383.15;;;;
2021/05/13 06:11:34;;;;;;;19.65;14.4;;;;;;;10.2;100;94383.15;;;;
2021/05/13 06:12:34;;;;;;;19.65;14.4;;;;;;;10.2;100;94383.15;;;;
2021/05/13 06:13:36;;;;;;;19.65;14.4;;;;;;;10.2;100;94383.15;;;;
2021/05/13 06:14:36;;;;;;;19.65;14.4;;;;;;;10.2;100;94383.15;;;;
2021/05/13 06:15:37;;;;;;;19.65;14.4;;;;;;;10.2;100;94383.15;;;;